Time;durP1;ratioP1;P1;durP2;ratioP2;P2;SDS_P1;SDS_P2;PMS_P1;PMS_P2;Temp;Humidity;BMP_temperature;BMP_pressure;BME280_temperature;BME280_humidity;BME280_pressure;Samples;Min_cycle;Max_cycle;Signal;HPM_P1;HPM_P2
2023/03/13 00:01:15;;;;;;;;;;;;;;;20.57;42.57;100128.63;4962064;28;5427;-63
2023/03/13 00:03:42;;;;;;;;;;;;;;;20.57;42.54;100122.84;4959472;28;4257;-63
2023/03/13 00:06:08;;;;;;;;;;;;;;;20.56;42.61;100127.13;4955556;28;4227;-63
2023/03/13 00:08:34;;;;;;;;;;;;;;;20.55;42.77;100094.00;4958463;28;5234;-63
2023/03/13 00:11:01;;;;;;;;;;;;;;;20.53;42.64;100109.06;4961612;28;4114;-63
2023/03/13 00:13:28;;;;;;;;;;;;;;;20.53;42.63;100105.47;4956524;28;5224;-63
2023/03/13 00:16:04;;;;;;;;;;;;;;;20.52;42.55;100096.06;4955327;28;5270;-62
2023/03/13 00:18:31;;;;;;;;;;;;;;;20.53;42.66;100102.59;4957182;28;4289;-63
2023/03/13 00:21:04;;;;;;;;;;;;;;;20.50;42.48;100085.25;4956180;28;4895;-63
2023/03/13 00:23:31;;;;;;;;;;;;;;;20.51;42.63;100088.88;4955887;28;5328;-63
2023/03/13 00:25:57;;;;;;;;;;;;;;;20.50;42.65;100088.13;4955588;28;4103;-63
2023/03/13 00:28:24;;;;;;;;;;;;;;;20.50;42.59;100085.25;4955731;28;4217;-63
2023/03/13 00:30:50;;;;;;;;;;;;;;;20.50;42.68;100084.50;4956754;28;4163;-62
2023/03/13 00:33:16;;;;;;;;;;;;;;;20.49;42.68;100086.66;4935850;28;5286;-62
2023/03/13 00:35:43;;;;;;;;;;;;;;;20.49;42.67;100086.66;4954611;28;4206;-62
2023/03/13 00:38:09;;;;;;;;;;;;;;;20.47;42.57;100080.81;4955150;28;5317;-62
2023/03/13 00:40:37;;;;;;;;;;;;;;;20.47;42.59;100092.31;4952476;28;5222;-62
2023/03/13 00:43:03;;;;;;;;;;;;;;;20.47;42.62;100080.81;4942149;28;8575;-63
2023/03/13 00:45:29;;;;;;;;;;;;;;;20.46;42.70;100070.75;4952198;28;4222;-63
2023/03/13 00:47:56;;;;;;;;;;;;;;;20.46;42.69;100076.50;4955754;28;4167;-63
2023/03/13 00:50:22;;;;;;;;;;;;;;;20.46;42.68;100067.13;4952768;28;4225;-63
2023/03/13 00:52:48;;;;;;;;;;;;;;;20.46;42.68;100070.75;4957190;28;4227;-63
2023/03/13 00:55:15;;;;;;;;;;;;;;;20.46;42.57;100067.13;4936174;28;4328;-63
2023/03/13 00:57:41;;;;;;;;;;;;;;;20.45;42.55;100060.63;4956688;28;4197;-63
2023/03/13 01:00:08;;;;;;;;;;;;;;;20.44;42.57;100059.16;4942934;28;4081;-63
2023/03/13 01:02:39;;;;;;;;;;;;;;;20.44;42.83;100052.69;4954176;28;4128;-63
2023/03/13 01:05:06;;;;;;;;;;;;;;;20.43;42.73;100043.31;4934439;28;4170;-63
2023/03/13 01:07:32;;;;;;;;;;;;;;;20.43;42.64;100033.94;4953610;28;4191;-63
2023/03/13 01:09:59;;;;;;;;;;;;;;;20.42;42.75;100038.22;4945360;28;4205;-63
2023/03/13 01:12:25;;;;;;;;;;;;;;;20.43;42.58;100051.19;4956683;28;4155;-62
2023/03/13 01:14:52;;;;;;;;;;;;;;;20.42;42.74;100038.97;4952199;28;4009;-63
2023/03/13 01:17:20;;;;;;;;;;;;;;;20.42;42.62;100047.59;4955167;28;4105;-62
2023/03/13 01:19:47;;;;;;;;;;;;;;;20.41;42.66;100049.00;4938022;28;4132;-63
2023/03/13 01:22:13;;;;;;;;;;;;;;;20.41;42.65;100054.00;4949933;28;4206;-62
2023/03/13 01:24:40;;;;;;;;;;;;;;;20.41;42.80;100048.25;4954695;28;4046;-62
2023/03/13 01:27:06;;;;;;;;;;;;;;;20.40;42.72;100046.78;4958603;28;4201;-62
2023/03/13 01:29:32;;;;;;;;;;;;;;;20.40;42.76;100047.53;4958440;28;4041;-62
2023/03/13 01:31:59;;;;;;;;;;;;;;;20.40;42.75;100047.53;4957217;28;4295;-63
2023/03/13 01:34:25;;;;;;;;;;;;;;;20.39;42.73;100053.97;4958480;28;4185;-62
2023/03/13 01:36:51;;;;;;;;;;;;;;;20.39;42.80;100048.22;4956298;28;4191;-62
2023/03/13 01:39:18;;;;;;;;;;;;;;;20.37;42.81;100037.38;4949260;28;4224;-63
2023/03/13 01:41:44;;;;;;;;;;;;;;;20.37;42.75;100037.38;4957498;28;5266;-63
2023/03/13 01:44:17;;;;;;;;;;;;;;;20.36;42.78;100035.88;4958011;28;4029;-62
2023/03/13 01:46:43;;;;;;;;;;;;;;;20.36;42.71;100035.88;4947896;28;4243;-63
2023/03/13 01:49:22;;;;;;;;;;;;;;;20.36;42.71;100021.50;4958894;28;4190;-63
2023/03/13 01:52:09;;;;;;;;;;;;;;;20.35;42.85;100022.91;4944032;29;4168;-63
2023/03/13 01:54:52;;;;;;;;;;;;;;;20.34;42.80;100004.22;4944399;29;5472;-62
2023/03/13 01:57:26;;;;;;;;;;;;;;;20.35;42.59;100004.94;4929780;29;4167;-63
2023/03/13 01:59:53;;;;;;;;;;;;;;;20.35;42.72;100002.06;4946121;29;5322;-62
2023/03/13 02:02:19;;;;;;;;;;;;;;;20.34;42.68;99998.47;4913463;29;4200;-63
2023/03/13 02:04:46;;;;;;;;;;;;;;;20.34;42.85;99997.69;4913051;29;4224;-63
2023/03/13 02:07:14;;;;;;;;;;;;;;;20.33;42.78;99999.84;4941455;29;4162;-63
2023/03/13 02:09:41;;;;;;;;;;;;;;;20.33;42.68;99996.97;4946078;29;4157;-63
2023/03/13 02:12:13;;;;;;;;;;;;;;;20.33;42.73;99999.13;4945438;29;4016;-63
2023/03/13 02:14:40;;;;;;;;;;;;;;;20.31;42.83;99985.41;4927756;29;4142;-63
2023/03/13 02:17:16;;;;;;;;;;;;;;;20.32;42.80;99986.88;4927264;29;4185;-63
2023/03/13 02:19:46;;;;;;;;;;;;;;;20.31;42.71;99982.53;4939063;29;4464;-63
2023/03/13 02:22:23;;;;;;;;;;;;;;;20.31;42.69;99968.16;4924681;29;4239;-63
2023/03/13 02:24:49;;;;;;;;;;;;;;;20.32;42.79;99971.75;4902167;29;4253;-63
2023/03/13 02:27:16;;;;;;;;;;;;;;;20.31;42.92;99979.66;4942256;29;4029;-63
2023/03/13 02:29:43;;;;;;;;;;;;;;;20.30;42.72;99972.44;4909506;29;4372;-63
2023/03/13 02:32:10;;;;;;;;;;;;;;;20.28;42.83;99961.59;4926798;29;5409;-63
2023/03/13 02:34:37;;;;;;;;;;;;;;;20.29;42.86;99959.47;4926995;29;4075;-63
2023/03/13 02:37:04;;;;;;;;;;;;;;;20.28;42.81;99955.13;4940630;29;5359;-63
2023/03/13 02:39:31;;;;;;;;;;;;;;;20.28;42.90;99955.84;4929123;29;3965;-63
2023/03/13 02:41:57;;;;;;;;;;;;;;;20.28;42.82;99947.22;4904944;29;5270;-63
2023/03/13 02:44:24;;;;;;;;;;;;;;;20.27;42.89;99945.00;4944420;29;4166;-62
2023/03/13 02:46:51;;;;;;;;;;;;;;;20.27;42.87;99942.13;4941899;28;5244;-63
2023/03/13 02:49:20;;;;;;;;;;;;;;;20.27;42.80;99942.13;4943950;28;4182;-62
2023/03/13 02:51:47;;;;;;;;;;;;;;;20.26;42.88;99938.53;4936480;29;4190;-63
2023/03/13 02:54:19;;;;;;;;;;;;;;;20.26;42.89;99929.19;4949050;28;4019;-63
2023/03/13 02:56:46;;;;;;;;;;;;;;;20.25;42.92;99922.72;4932265;29;4158;-62
2023/03/13 02:59:12;;;;;;;;;;;;;;;20.25;42.93;99921.97;4915143;29;4126;-63
2023/03/13 03:01:41;;;;;;;;;;;;;;;20.25;42.92;99913.34;4946168;28;4316;-62
2023/03/13 03:04:08;;;;;;;;;;;;;;;20.24;42.88;99915.47;4930739;28;4230;-62
2023/03/13 03:06:34;;;;;;;;;;;;;;;20.24;42.79;99917.63;4941795;28;5157;-62
2023/03/13 03:09:02;;;;;;;;;;;;;;;20.24;42.91;99903.25;4928047;29;5237;-62
2023/03/13 03:11:32;;;;;;;;;;;;;;;20.24;42.89;99903.25;4931967;29;5413;-63
2023/03/13 03:14:02;;;;;;;;;;;;;;;20.23;42.89;99911.16;4949157;28;4314;-62
2023/03/13 03:16:34;;;;;;;;;;;;;;;20.23;42.91;99902.53;4926956;29;5299;-63
2023/03/13 03:19:03;;;;;;;;;;;;;;;20.23;42.93;99905.41;4924783;29;4140;-63
2023/03/13 03:21:30;;;;;;;;;;;;;;;20.23;42.90;99907.53;4951814;28;4843;-62
2023/03/13 03:23:56;;;;;;;;;;;;;;;20.22;42.97;99900.31;4931059;28;4013;-62
2023/03/13 03:26:23;;;;;;;;;;;;;;;20.22;42.97;99894.56;4931285;29;4236;-62
2023/03/13 03:28:50;;;;;;;;;;;;;;;20.22;42.91;99903.19;4927537;28;5260;-62
2023/03/13 03:31:17;;;;;;;;;;;;;;;20.23;42.97;99898.91;4933493;29;4039;-62
2023/03/13 03:33:44;;;;;;;;;;;;;;;20.21;43.00;99893.09;4924715;29;4181;-63
2023/03/13 03:36:13;;;;;;;;;;;;;;;20.22;43.03;99891.69;4928706;29;4066;-63
2023/03/13 03:38:40;;;;;;;;;;;;;;;20.22;43.11;99880.19;4944640;28;4165;-63
2023/03/13 03:41:08;;;;;;;;;;;;;;;20.24;43.03;99877.38;4944935;28;4207;-63
2023/03/13 03:43:34;;;;;;;;;;;;;;;20.24;42.99;99872.34;4943961;28;4278;-63
2023/03/13 03:46:03;;;;;;;;;;;;;;;20.27;42.98;99867.41;4946288;28;4135;-62
2023/03/13 03:48:29;;;;;;;;;;;;;;;20.27;42.82;99862.41;4931644;28;4306;-63
2023/03/13 03:50:56;;;;;;;;;;;;;;;20.29;42.75;99855.97;4949588;28;4188;-62
2023/03/13 03:53:23;;;;;;;;;;;;;;;20.31;42.72;99858.91;4965355;28;5446;-62
2023/03/13 03:55:49;;;;;;;;;;;;;;;20.32;42.82;99854.66;4964761;28;5418;-63
2023/03/13 03:58:16;;;;;;;;;;;;;;;20.34;42.80;99848.97;4965615;28;5529;-62
2023/03/13 04:00:58;;;;;;;;;;;;;;;20.34;42.88;99843.22;4940836;28;5273;-63
2023/03/13 04:03:25;;;;;;;;;;;;;;;20.34;42.87;99837.47;4961909;28;4458;-62
2023/03/13 04:05:51;;;;;;;;;;;;;;;20.35;42.83;99838.91;4957887;28;4290;-63
2023/03/13 04:08:20;;;;;;;;;;;;;;;20.35;42.88;99830.28;4949732;28;4035;-63
2023/03/13 04:10:46;;;;;;;;;;;;;;;20.36;42.87;99833.88;4958800;28;4034;-63
2023/03/13 04:13:12;;;;;;;;;;;;;;;20.35;43.02;99827.41;4956573;28;4226;-62
2023/03/13 04:15:39;;;;;;;;;;;;;;;20.37;42.93;99815.97;4962817;28;4298;-62
2023/03/13 04:18:07;;;;;;;;;;;;;;;20.38;43.00;99823.19;4948556;28;4088;-63
2023/03/13 04:20:34;;;;;;;;;;;;;;;20.40;42.87;99814.63;4962663;28;4430;-63
2023/03/13 04:23:00;;;;;;;;;;;;;;;20.42;42.92;99808.94;4948078;28;4177;-62
2023/03/13 04:25:27;;;;;;;;;;;;;;;20.42;43.01;99806.06;4949357;28;5244;-62
2023/03/13 04:27:56;;;;;;;;;;;;;;;20.42;42.95;99790.94;4943992;28;4202;-62
2023/03/13 04:30:27;;;;;;;;;;;;;;;20.43;42.97;99793.16;4942470;28;4158;-62
2023/03/13 04:33:10;;;;;;;;;;;;;;;20.42;42.95;99791.69;4965195;28;4240;-63
2023/03/13 04:35:45;;;;;;;;;;;;;;;20.43;43.09;99787.41;4943698;28;4245;-62
2023/03/13 04:38:21;;;;;;;;;;;;;;;20.41;43.00;99790.22;4941980;28;3981;-62
2023/03/13 04:41:05;;;;;;;;;;;;;;;20.42;43.08;99780.19;4945283;28;4251;-63
2023/03/13 04:43:31;;;;;;;;;;;;;;;20.41;43.21;99772.97;4956830;28;5526;-63
2023/03/13 04:46:20;;;;;;;;;;;;;;;20.42;43.14;99768.69;4948450;28;4206;-62
2023/03/13 04:49:01;;;;;;;;;;;;;;;20.41;43.23;99758.59;4946801;28;5530;-62
2023/03/13 04:51:31;;;;;;;;;;;;;;;20.41;43.11;99755.72;4956995;28;5275;-62
2023/03/13 04:54:14;;;;;;;;;;;;;;;20.42;43.26;99751.44;4961665;28;4327;-63
2023/03/13 04:56:56;;;;;;;;;;;;;;;20.43;43.19;99743.53;4961812;28;5428;-63
2023/03/13 04:59:46;;;;;;;;;;;;;;;20.43;43.17;99729.16;4962209;28;5463;-63
2023/03/13 05:02:31;;;;;;;;;;;;;;;20.45;43.24;99732.09;4959939;28;4343;-63
2023/03/13 05:05:06;;;;;;;;;;;;;;;20.46;43.25;99730.69;4957444;28;4327;-62
2023/03/13 05:07:58;;;;;;;;;;;;;;;20.47;43.17;99717.75;4929275;28;4107;-63
2023/03/13 05:10:31;;;;;;;;;;;;;;;20.47;43.18;99712.75;4932111;28;5305;-62
2023/03/13 05:13:14;;;;;;;;;;;;;;;20.48;43.15;99719.25;4955998;28;4198;-62
2023/03/13 05:15:51;;;;;;;;;;;;;;;20.48;43.17;99705.59;4952824;28;4941;-62
2023/03/13 05:18:29;;;;;;;;;;;;;;;20.48;43.20;99713.50;4960806;28;4072;-63
2023/03/13 05:21:05;;;;;;;;;;;;;;;20.46;43.18;99705.53;4957029;28;4268;-63
2023/03/13 05:23:50;;;;;;;;;;;;;;;20.47;43.25;99701.25;4957126;28;4177;-62
2023/03/13 05:26:32;;;;;;;;;;;;;;;20.47;43.15;99698.38;4955808;28;4274;-62
2023/03/13 05:29:24;;;;;;;;;;;;;;;20.47;43.40;99689.75;4948169;28;4151;-63
2023/03/13 05:32:02;;;;;;;;;;;;;;;20.47;43.32;99677.50;4936280;28;5257;-63
2023/03/13 05:34:49;;;;;;;;;;;;;;;20.47;43.17;99672.47;4956229;28;5096;-62
2023/03/13 05:37:42;;;;;;;;;;;;;;;20.46;43.42;99659.53;4939952;28;4186;-63
2023/03/13 05:40:17;;;;;;;;;;;;;;;20.49;43.33;99663.91;4956879;28;4217;-62
2023/03/13 05:43:03;;;;;;;;;;;;;;;20.50;43.33;99653.91;4956905;28;5404;-62
2023/03/13 05:45:48;;;;;;;;;;;;;;;20.51;43.35;99649.59;4946490;28;5332;-62
2023/03/13 05:48:44;;;;;;;;;;;;;;;20.54;43.45;99632.41;4943069;28;4166;-63
2023/03/13 05:51:33;;;;;;;;;;;;;;;20.53;43.33;99637.44;4953292;28;5150;-62
2023/03/13 05:54:18;;;;;;;;;;;;;;;20.53;43.44;99630.94;4952901;28;4241;-62
2023/03/13 05:56:53;;;;;;;;;;;;;;;20.52;43.44;99624.44;4954001;28;5287;-62
2023/03/13 05:59:31;;;;;;;;;;;;;;;20.53;43.52;99617.28;4935690;28;4236;-63
2023/03/13 06:02:16;;;;;;;;;;;;;;;20.51;43.64;99615.09;4958520;28;5540;-62
2023/03/13 06:04:45;;;;;;;;;;;;;;;20.53;43.40;99616.56;4941265;28;5312;-62
2023/03/13 06:07:12;;;;;;;;;;;;;;;20.53;43.54;99616.56;4940917;28;6607;-62
2023/03/13 06:09:39;;;;;;;;;;;;;;;20.50;44.14;99607.88;4933820;28;4068;-62
2023/03/13 06:12:07;;;;;;;;;;;;;;;20.58;43.99;99606.66;4943334;28;4136;-66
2023/03/13 06:14:34;;;;;;;;;;;;;;;20.60;43.82;99598.81;4958508;28;3996;-60
2023/03/13 06:17:19;;;;;;;;;;;;;;;20.62;43.72;99590.22;4951705;28;4327;-60
2023/03/13 06:19:45;;;;;;;;;;;;;;;20.66;43.76;99589.59;4950902;28;4192;-58
2023/03/13 06:22:11;;;;;;;;;;;;;;;20.71;43.88;99585.41;4947026;28;4253;-59
2023/03/13 06:24:38;;;;;;;;;;;;;;;20.91;44.26;99580.16;4948620;28;5321;-61
2023/03/13 06:27:05;;;;;;;;;;;;;;;20.95;44.67;99573.03;4953848;28;4213;-62
2023/03/13 06:29:32;;;;;;;;;;;;;;;21.01;44.36;99561.66;4953353;28;4657;-60
2023/03/13 06:31:58;;;;;;;;;;;;;;;21.07;44.11;99556.03;4954972;28;4179;-60
2023/03/13 06:34:25;;;;;;;;;;;;;;;21.10;44.14;99558.28;4955632;28;5306;-62
2023/03/13 06:36:51;;;;;;;;;;;;;;;21.15;44.36;99541.84;4958622;28;4297;-62
2023/03/13 06:39:17;;;;;;;;;;;;;;;21.26;44.18;99531.28;4959032;28;4392;-63
2023/03/13 06:41:44;;;;;;;;;;;;;;;21.31;43.81;99527.78;4957084;28;5310;-59
2023/03/13 06:44:10;;;;;;;;;;;;;;;21.31;43.67;99521.31;4955052;28;4242;-62
2023/03/13 06:46:36;;;;;;;;;;;;;;;21.29;43.93;99513.34;4961457;28;4158;-64
2023/03/13 06:49:04;;;;;;;;;;;;;;;21.27;43.80;99504.66;4959796;28;5323;-64
2023/03/13 06:51:31;;;;;;;;;;;;;;;21.25;43.85;99507.50;4959170;28;4203;-63
2023/03/13 06:53:57;;;;;;;;;;;;;;;21.37;43.54;99504.13;4959860;28;5334;-62
2023/03/13 06:56:23;;;;;;;;;;;;;;;21.39;43.56;99504.19;4960198;28;5054;-63
2023/03/13 06:58:50;;;;;;;;;;;;;;;21.40;43.39;99504.94;4958445;28;5418;-63
2023/03/13 07:01:16;;;;;;;;;;;;;;;21.33;43.79;99519.19;4960740;28;4211;-63
2023/03/13 07:03:43;;;;;;;;;;;;;;;21.32;44.10;99523.47;4959376;28;4265;-61
2023/03/13 07:06:09;;;;;;;;;;;;;;;21.57;44.19;99515.38;4957002;28;4192;-61
2023/03/13 07:08:35;;;;;;;;;;;;;;;21.54;44.27;99513.88;4959179;28;4199;-61
2023/03/13 07:11:06;;;;;;;;;;;;;;;21.46;44.14;99507.94;4961546;28;4115;-62
2023/03/13 07:13:32;;;;;;;;;;;;;;;21.33;44.03;99499.03;4962223;28;3896;-62
2023/03/13 07:15:59;;;;;;;;;;;;;;;21.22;44.50;99482.97;4962216;28;4467;-63
2023/03/13 07:18:25;;;;;;;;;;;;;;;21.18;44.29;99485.75;4962464;28;4169;-68
2023/03/13 07:20:55;;;;;;;;;;;;;;;18.91;45.57;99488.53;4960914;28;4146;-60
2023/03/13 07:23:22;;;;;;;;;;;;;;;18.94;47.90;99484.31;4961932;28;4236;-60
2023/03/13 07:25:55;;;;;;;;;;;;;;;19.82;46.35;99486.84;4961951;28;5272;-62
2023/03/13 07:28:21;;;;;;;;;;;;;;;20.40;46.99;99483.97;4962692;28;4290;-62
2023/03/13 07:30:48;;;;;;;;;;;;;;;20.54;45.63;99477.13;4958621;28;4189;-63
2023/03/13 07:33:14;;;;;;;;;;;;;;;20.54;45.15;99480.00;4957507;28;4037;-64
2023/03/13 07:35:46;;;;;;;;;;;;;;;20.58;45.67;99469.34;4961585;28;4153;-63
2023/03/13 07:38:13;;;;;;;;;;;;;;;20.71;44.96;99482.59;4961134;28;4188;-62
2023/03/13 07:40:39;;;;;;;;;;;;;;;20.86;45.31;99457.75;4958591;28;4191;-62
2023/03/13 07:43:05;;;;;;;;;;;;;;;20.92;44.70;99460.03;4957570;28;4061;-61
2023/03/13 07:45:32;;;;;;;;;;;;;;;21.02;44.44;99445.13;4959074;28;4130;-61
2023/03/13 07:47:58;;;;;;;;;;;;;;;21.13;44.40;99452.56;4958514;28;5297;-61
2023/03/13 07:50:24;;;;;;;;;;;;;;;21.26;44.36;99447.78;4956623;28;4040;-63
2023/03/13 07:52:51;;;;;;;;;;;;;;;21.22;43.81;99445.56;4954706;28;4264;-63
2023/03/13 07:55:17;;;;;;;;;;;;;;;21.25;44.20;99447.03;4955095;28;4233;-59
2023/03/13 07:57:43;;;;;;;;;;;;;;;21.24;44.16;99434.09;4952694;28;5216;-63
2023/03/13 08:00:15;;;;;;;;;;;;;;;21.32;44.38;99439.25;4955707;28;4121;-65
2023/03/13 08:02:41;;;;;;;;;;;;;;;21.32;43.63;99430.63;4957014;28;4201;-65
2023/03/13 08:05:08;;;;;;;;;;;;;;;21.26;44.16;99431.25;4956921;28;4215;-64
2023/03/13 08:07:34;;;;;;;;;;;;;;;21.32;43.98;99430.63;4956444;28;4346;-57
2023/03/13 08:10:00;;;;;;;;;;;;;;;21.39;43.94;99417.09;4958037;28;4163;-62
2023/03/13 08:12:27;;;;;;;;;;;;;;;21.41;43.71;99422.91;4956777;28;5229;-64
2023/03/13 08:14:53;;;;;;;;;;;;;;;21.29;44.18;99426.97;4957343;28;4159;-62
2023/03/13 08:17:19;;;;;;;;;;;;;;;21.25;44.69;99415.38;4956209;28;4954;-62
2023/03/13 08:19:46;;;;;;;;;;;;;;;21.22;44.50;99408.13;4954944;28;4137;-62
2023/03/13 08:22:12;;;;;;;;;;;;;;;21.19;44.47;99414.53;4958150;28;4275;-62
2023/03/13 08:24:38;;;;;;;;;;;;;;;21.20;44.45;99402.31;4957215;28;4182;-61
2023/03/13 08:27:05;;;;;;;;;;;;;;;21.20;44.64;99395.84;4958208;28;4267;-61
2023/03/13 08:29:31;;;;;;;;;;;;;;;21.18;44.52;99387.16;4957802;28;4396;-59
2023/03/13 08:31:57;;;;;;;;;;;;;;;21.18;44.54;99385.03;4956124;28;4163;-59
2023/03/13 08:34:24;;;;;;;;;;;;;;;21.23;44.46;99383.66;4955406;28;4430;-60
2023/03/13 08:36:51;;;;;;;;;;;;;;;21.21;44.39;99385.78;4954791;28;5255;-61
2023/03/13 08:39:19;;;;;;;;;;;;;;;21.21;44.54;99377.91;4954989;28;4024;-61
2023/03/13 08:41:46;;;;;;;;;;;;;;;21.24;44.52;99375.78;4955529;28;4653;-61
2023/03/13 08:44:13;;;;;;;;;;;;;;;21.23;44.65;99383.66;4958602;28;4139;-61
2023/03/13 08:46:39;;;;;;;;;;;;;;;21.18;44.51;99373.50;4956480;28;4218;-61
2023/03/13 08:49:06;;;;;;;;;;;;;;;21.18;44.71;99370.63;4956706;28;5583;-62
2023/03/13 08:51:32;;;;;;;;;;;;;;;21.15;44.80;99360.50;4960437;28;4564;-61
2023/03/13 08:53:59;;;;;;;;;;;;;;;21.17;44.86;99356.94;4956724;28;4524;-61
2023/03/13 08:56:26;;;;;;;;;;;;;;;21.14;44.84;99353.28;4956756;28;4052;-60
2023/03/13 08:58:53;;;;;;;;;;;;;;;20.81;44.90;99352.63;4957009;28;5240;-59
2023/03/13 09:01:20;;;;;;;;;;;;;;;21.04;44.93;99350.22;4954307;28;5323;-59
2023/03/13 09:03:46;;;;;;;;;;;;;;;21.30;44.53;99347.09;4954160;28;4201;-60
2023/03/13 09:06:13;;;;;;;;;;;;;;;21.48;44.15;99344.56;4958437;28;4338;-61
2023/03/13 09:08:39;;;;;;;;;;;;;;;21.59;43.89;99331.09;4955998;28;5221;-62
2023/03/13 09:11:06;;;;;;;;;;;;;;;21.36;44.57;99335.69;4958604;28;4174;-61
2023/03/13 09:13:34;;;;;;;;;;;;;;;21.25;44.45;99340.53;4955556;28;5220;-61
2023/03/13 09:16:01;;;;;;;;;;;;;;;21.25;44.44;99334.78;4953316;28;4174;-63
2023/03/13 09:18:27;;;;;;;;;;;;;;;21.58;44.25;99351.94;4958202;28;4217;-62
2023/03/13 09:20:54;;;;;;;;;;;;;;;21.75;43.85;99345.03;4955213;28;4161;-62
2023/03/13 09:23:20;;;;;;;;;;;;;;;21.72;43.79;99344.28;4956877;28;4177;-60
2023/03/13 09:25:47;;;;;;;;;;;;;;;21.66;43.74;99347.03;4954082;28;4195;-60
2023/03/13 09:28:13;;;;;;;;;;;;;;;21.63;44.11;99339.78;4957506;28;5215;-60
2023/03/13 09:30:39;;;;;;;;;;;;;;;21.27;44.70;99343.44;4954961;28;4200;-64
2023/03/13 09:33:06;;;;;;;;;;;;;;;21.09;44.87;99331.59;4954446;28;4227;-62
2023/03/13 09:35:32;;;;;;;;;;;;;;;21.19;44.95;99331.81;4954329;28;4131;-62
2023/03/13 09:37:58;;;;;;;;;;;;;;;21.28;44.93;99315.38;4952429;28;3976;-62
2023/03/13 09:40:25;;;;;;;;;;;;;;;21.30;45.13;99324.81;4957373;28;4219;-63
2023/03/13 09:42:55;;;;;;;;;;;;;;;21.29;44.99;99317.56;4942904;28;4182;-62
2023/03/13 09:45:31;;;;;;;;;;;;;;;21.34;44.63;99313.34;4953708;28;4180;-64
2023/03/13 09:47:58;;;;;;;;;;;;;;;21.37;44.74;99319.88;4954347;28;5207;-64
2023/03/13 09:50:26;;;;;;;;;;;;;;;21.30;44.64;99307.53;4946682;28;5117;-67
2023/03/13 09:52:53;;;;;;;;;;;;;;;21.43;44.61;99313.53;4941580;28;4182;-66
2023/03/13 09:55:20;;;;;;;;;;;;;;;21.39;44.45;99317.03;4954336;28;5292;-62
2023/03/13 09:57:46;;;;;;;;;;;;;;;21.29;44.84;99311.81;4944949;28;5250;-62
2023/03/13 10:00:33;;;;;;;;;;;;;;;21.24;44.80;99318.22;4957606;28;4181;-62
2023/03/13 10:03:02;;;;;;;;;;;;;;;21.21;45.09;99311.69;4942921;28;4129;-61
2023/03/13 10:05:28;;;;;;;;;;;;;;;21.20;44.94;99306.63;4945135;28;4008;-61
2023/03/13 10:08:07;;;;;;;;;;;;;;;21.22;45.16;99312.41;4953829;28;5247;-61
2023/03/13 10:10:37;;;;;;;;;;;;;;;21.24;45.01;99312.47;4942695;28;4183;-62
2023/03/13 10:13:09;;;;;;;;;;;;;;;21.19;45.26;99297.25;4943952;28;4319;-62
2023/03/13 10:15:38;;;;;;;;;;;;;;;21.54;45.64;99312.28;4942886;28;4196;-61
2023/03/13 10:18:10;;;;;;;;;;;;;;;21.40;45.56;99303.38;4953694;28;4215;-61
2023/03/13 10:20:36;;;;;;;;;;;;;;;21.16;45.70;99307.25;4945526;28;5267;-62
2023/03/13 10:23:05;;;;;;;;;;;;;;;21.10;45.96;99299.25;4956253;28;4180;-62
2023/03/13 10:25:32;;;;;;;;;;;;;;;21.01;45.93;99299.81;4956631;28;4293;-61
2023/03/13 10:27:59;;;;;;;;;;;;;;;20.80;46.02;99305.16;4941710;28;4317;-62
2023/03/13 10:30:29;;;;;;;;;;;;;;;20.83;46.11;99289.38;4957224;28;4200;-61
2023/03/13 10:32:59;;;;;;;;;;;;;;;20.80;46.21;99292.91;4956144;28;4218;-63
2023/03/13 10:35:32;;;;;;;;;;;;;;;21.05;45.78;99288.34;4956696;28;4205;-61
2023/03/13 10:38:00;;;;;;;;;;;;;;;21.04;45.61;99269.63;4956134;28;4100;-61
2023/03/13 10:40:27;;;;;;;;;;;;;;;21.05;45.58;99276.84;4959715;28;4229;-61
2023/03/13 10:42:59;;;;;;;;;;;;;;;21.07;45.58;99269.00;4957679;28;4210;-61
2023/03/13 10:45:26;;;;;;;;;;;;;;;21.29;45.14;99259.28;4957659;28;4176;-61
2023/03/13 10:47:53;;;;;;;;;;;;;;;21.28;45.50;99261.44;4955284;28;5220;-61
2023/03/13 10:50:22;;;;;;;;;;;;;;;21.32;45.31;99263.63;4957037;28;4277;-61
2023/03/13 10:52:49;;;;;;;;;;;;;;;21.21;45.28;99271.41;4957082;28;4166;-62
2023/03/13 10:55:16;;;;;;;;;;;;;;;21.13;45.35;99271.25;4958507;28;4330;-62
2023/03/13 10:57:50;;;;;;;;;;;;;;;21.12;45.69;99264.03;4956672;28;4205;-62
2023/03/13 11:00:26;;;;;;;;;;;;;;;21.12;45.64;99252.53;4954317;28;5481;-61
2023/03/13 11:02:53;;;;;;;;;;;;;;;21.20;45.41;99246.91;4954495;28;4152;-62
2023/03/13 11:05:22;;;;;;;;;;;;;;;21.33;44.96;99248.56;4956693;28;4211;-61
2023/03/13 11:07:48;;;;;;;;;;;;;;;21.46;44.94;99248.78;4954587;28;4156;-61
2023/03/13 11:10:18;;;;;;;;;;;;;;;21.49;44.74;99241.66;4942559;28;4486;-61
2023/03/13 11:12:45;;;;;;;;;;;;;;;21.49;44.90;99238.78;4957334;28;4011;-64
2023/03/13 11:15:14;;;;;;;;;;;;;;;21.54;44.60;99232.38;4955516;28;4296;-61
2023/03/13 11:17:41;;;;;;;;;;;;;;;21.33;44.93;99224.81;4956523;28;4194;-64
2023/03/13 11:20:11;;;;;;;;;;;;;;;21.22;45.50;99237.56;4944562;28;4231;-60
2023/03/13 11:22:48;;;;;;;;;;;;;;;21.16;45.54;99228.81;4943418;28;4363;-63
2023/03/13 11:25:14;;;;;;;;;;;;;;;21.21;45.20;99231.09;4938108;28;4760;-64
2023/03/13 11:27:48;;;;;;;;;;;;;;;21.13;45.55;99225.91;4961062;28;4213;-65
2023/03/13 11:30:33;;;;;;;;;;;;;;;21.18;45.63;99243.97;4954764;28;4065;-72
2023/03/13 11:33:11;;;;;;;;;;;;;;;21.08;45.62;99212.16;4939856;28;4277;-69
2023/03/13 11:35:49;;;;;;;;;;;;;;;20.95;45.79;99219.13;4936950;28;4234;-69
2023/03/13 11:38:28;;;;;;;;;;;;;;;20.94;45.76;99212.63;4955381;28;4152;-69
2023/03/13 11:41:05;;;;;;;;;;;;;;;20.95;45.89;99216.97;4952980;28;4678;-69
2023/03/13 11:43:34;;;;;;;;;;;;;;;20.93;45.92;99214.75;4955618;28;4116;-68
2023/03/13 11:46:12;;;;;;;;;;;;;;;20.95;45.82;99210.47;4954819;28;5075;-69
2023/03/13 11:48:43;;;;;;;;;;;;;;;20.93;45.76;99226.28;4955557;28;4550;-68
2023/03/13 11:51:16;;;;;;;;;;;;;;;20.95;45.62;99204.72;4937619;29;4213;-68
2023/03/13 11:53:52;;;;;;;;;;;;;;;20.92;45.70;99213.31;4944384;29;4349;-68
2023/03/13 11:56:30;;;;;;;;;;;;;;;20.95;45.60;99216.25;4930624;29;5343;-68
2023/03/13 11:59:12;;;;;;;;;;;;;;;20.91;45.62;99220.50;4947206;29;4150;-69
2023/03/13 12:01:39;;;;;;;;;;;;;;;20.93;45.49;99216.91;4930881;28;6173;-69
2023/03/13 12:04:24;;;;;;;;;;;;;;;20.93;45.62;99214.75;4948162;29;4193;-69
2023/03/13 12:06:52;;;;;;;;;;;;;;;20.91;45.62;99226.25;4945623;28;4313;-69
2023/03/13 12:09:22;;;;;;;;;;;;;;;20.90;45.75;99216.16;4940502;28;5469;-69
2023/03/13 12:11:52;;;;;;;;;;;;;;;20.88;45.50;99201.72;4920204;29;4120;-68
2023/03/13 12:14:21;;;;;;;;;;;;;;;20.92;45.39;99221.22;4922577;28;4521;-62
2023/03/13 12:16:57;;;;;;;;;;;;;;;20.89;47.30;99203.22;4926632;29;4350;-73
2023/03/13 12:19:35;;;;;;;;;;;;;;;21.13;47.23;99216.56;4922475;29;4966;-68
2023/03/13 12:22:13;;;;;;;;;;;;;;;21.25;46.62;99202.34;4944736;29;4196;-67
2023/03/13 12:24:41;;;;;;;;;;;;;;;21.29;46.38;99207.47;4945669;28;4161;-66
2023/03/13 12:27:18;;;;;;;;;;;;;;;21.34;46.14;99185.94;4947014;28;5396;-67
2023/03/13 12:29:49;;;;;;;;;;;;;;;21.33;45.92;99184.50;4948864;29;4154;-68
2023/03/13 12:32:21;;;;;;;;;;;;;;;21.40;45.84;99193.97;4945830;28;4290;-68
2023/03/13 12:35:02;;;;;;;;;;;;;;;21.31;46.35;99188.06;4929662;29;4137;-67
2023/03/13 12:37:37;;;;;;;;;;;;;;;21.18;46.14;99185.69;4925620;29;4237;-68
2023/03/13 12:40:11;;;;;;;;;;;;;;;21.12;46.64;99183.44;4930359;29;5274;-69
2023/03/13 12:42:50;;;;;;;;;;;;;;;21.16;47.20;99180.63;4929994;29;4249;-67
2023/03/13 12:45:17;;;;;;;;;;;;;;;21.19;47.40;99170.63;4927598;29;4055;-69
2023/03/13 12:47:53;;;;;;;;;;;;;;;21.25;47.45;99175.72;4954270;29;4012;-69
2023/03/13 12:50:26;;;;;;;;;;;;;;;21.17;46.81;99164.09;4927548;28;4416;-66
2023/03/13 12:52:56;;;;;;;;;;;;;;;21.12;47.48;99172.66;4943259;28;5194;-65
2023/03/13 12:55:27;;;;;;;;;;;;;;;21.17;46.83;99173.47;4940428;28;4061;-66
2023/03/13 12:57:56;;;;;;;;;;;;;;;21.21;46.39;99161.25;4958175;28;4046;-66
2023/03/13 13:00:24;;;;;;;;;;;;;;;21.21;46.41;99156.25;4955351;28;4405;-70
2023/03/13 13:03:20;;;;;;;;;;;;;;;21.52;46.36;99143.06;4962678;28;4329;-79
2023/03/13 13:06:05;;;;;;;;;;;;;;;21.70;46.62;99145.47;4952535;28;4663;-68
2023/03/13 13:08:33;;;;;;;;;;;;;;;21.88;45.96;99147.88;4958779;28;4132;-69
2023/03/13 13:11:18;;;;;;;;;;;;;;;21.95;46.03;99146.53;4958536;28;5079;-68